sensor_id;sensor_type;location;lat;lon;timestamp;temperature;humidity
15257;DHT22;7731;50.720;6.912;2022-10-31T00:00:51;13.00;99.90
15257;DHT22;7731;50.720;6.912;2022-10-31T00:03:30;12.80;99.90
15257;DHT22;7731;50.720;6.912;2022-10-31T00:06:01;12.70;99.90
15257;DHT22;7731;50.720;6.912;2022-10-31T00:08:31;12.70;99.90
15257;DHT22;7731;50.720;6.912;2022-10-31T00:11:01;12.60;99.90
15257;DHT22;7731;50.720;6.912;2022-10-31T00:13:36;12.60;99.90
15257;DHT22;7731;50.720;6.912;2022-10-31T00:16:13;12.60;99.90
15257;DHT22;7731;50.720;6.912;2022-10-31T00:18:48;12.60;99.90
15257;DHT22;7731;50.720;6.912;2022-10-31T00:21:22;12.60;99.90
15257;DHT22;7731;50.720;6.912;2022-10-31T00:23:53;12.60;99.90
15257;DHT22;7731;50.720;6.912;2022-10-31T00:26:24;12.60;99.90
15257;DHT22;7731;50.720;6.912;2022-10-31T00:28:57;12.70;99.90
15257;DHT22;7731;50.720;6.912;2022-10-31T00:31:28;12.80;99.90
15257;DHT22;7731;50.720;6.912;2022-10-31T00:33:58;12.90;99.90
15257;DHT22;7731;50.720;6.912;2022-10-31T00:36:29;12.80;99.90
15257;DHT22;7731;50.720;6.912;2022-10-31T00:39:00;12.70;99.90
15257;DHT22;7731;50.720;6.912;2022-10-31T00:41:30;12.70;99.90
15257;DHT22;7731;50.720;6.912;2022-10-31T00:44:03;12.70;99.90
15257;DHT22;7731;50.720;6.912;2022-10-31T00:46:36;12.60;99.90
15257;DHT22;7731;50.720;6.912;2022-10-31T00:49:06;12.60;99.90
15257;DHT22;7731;50.720;6.912;2022-10-31T00:51:44;12.50;99.90
15257;DHT22;7731;50.720;6.912;2022-10-31T00:54:14;12.40;99.90
15257;DHT22;7731;50.720;6.912;2022-10-31T00:56:44;12.40;99.90
15257;DHT22;7731;50.720;6.912;2022-10-31T00:59:17;12.40;99.90
15257;DHT22;7731;50.720;6.912;2022-10-31T01:01:47;12.50;99.90
15257;DHT22;7731;50.720;6.912;2022-10-31T01:04:18;12.50;99.90
15257;DHT22;7731;50.720;6.912;2022-10-31T01:06:48;12.60;99.90
15257;DHT22;7731;50.720;6.912;2022-10-31T01:09:18;12.60;99.90
15257;DHT22;7731;50.720;6.912;2022-10-31T01:11:54;12.70;99.90
15257;DHT22;7731;50.720;6.912;2022-10-31T01:14:27;12.70;99.90
15257;DHT22;7731;50.720;6.912;2022-10-31T01:16:57;12.60;99.90
15257;DHT22;7731;50.720;6.912;2022-10-31T01:19:27;12.60;99.90
15257;DHT22;7731;50.720;6.912;2022-10-31T01:21:57;12.50;99.90
15257;DHT22;7731;50.720;6.912;2022-10-31T01:24:27;12.50;99.90
15257;DHT22;7731;50.720;6.912;2022-10-31T01:26:58;12.50;99.90
15257;DHT22;7731;50.720;6.912;2022-10-31T01:29:34;12.40;99.90
15257;DHT22;7731;50.720;6.912;2022-10-31T01:32:04;12.40;99.90
15257;DHT22;7731;50.720;6.912;2022-10-31T01:34:37;12.30;99.90
15257;DHT22;7731;50.720;6.912;2022-10-31T01:37:10;12.30;99.90
15257;DHT22;7731;50.720;6.912;2022-10-31T01:39:40;12.40;99.90
15257;DHT22;7731;50.720;6.912;2022-10-31T01:42:18;12.40;99.90
15257;DHT22;7731;50.720;6.912;2022-10-31T01:44:59;12.40;99.90
15257;DHT22;7731;50.720;6.912;2022-10-31T01:47:43;12.40;99.90
15257;DHT22;7731;50.720;6.912;2022-10-31T01:50:28;12.40;99.90
15257;DHT22;7731;50.720;6.912;2022-10-31T01:53:06;12.50;99.90
15257;DHT22;7731;50.720;6.912;2022-10-31T01:55:44;12.50;99.90
15257;DHT22;7731;50.720;6.912;2022-10-31T01:58:19;12.60;99.90
15257;DHT22;7731;50.720;6.912;2022-10-31T02:00:58;12.50;99.90
15257;DHT22;7731;50.720;6.912;2022-10-31T02:03:34;12.40;99.90
15257;DHT22;7731;50.720;6.912;2022-10-31T02:06:12;12.40;99.90
15257;DHT22;7731;50.720;6.912;2022-10-31T02:08:50;12.40;99.90
15257;DHT22;7731;50.720;6.912;2022-10-31T02:11:21;12.30;99.90
15257;DHT22;7731;50.720;6.912;2022-10-31T02:13:54;12.30;99.90
15257;DHT22;7731;50.720;6.912;2022-10-31T02:16:31;12.30;99.90
15257;DHT22;7731;50.720;6.912;2022-10-31T02:19:01;12.30;99.90
15257;DHT22;7731;50.720;6.912;2022-10-31T02:21:42;12.30;99.90
15257;DHT22;7731;50.720;6.912;2022-10-31T02:24:42;12.30;99.90
15257;DHT22;7731;50.720;6.912;2022-10-31T02:30:36;12.30;99.90
15257;DHT22;7731;50.720;6.912;2022-10-31T02:33:22;12.40;99.90
15257;DHT22;7731;50.720;6.912;2022-10-31T02:36:07;12.40;99.90
15257;DHT22;7731;50.720;6.912;2022-10-31T02:38:50;12.30;99.90
15257;DHT22;7731;50.720;6.912;2022-10-31T02:41:34;12.20;99.90
15257;DHT22;7731;50.720;6.912;2022-10-31T02:44:22;12.20;99.90
15257;DHT22;7731;50.720;6.912;2022-10-31T02:47:03;12.20;99.90
15257;DHT22;7731;50.720;6.912;2022-10-31T02:49:45;12.20;99.90
15257;DHT22;7731;50.720;6.912;2022-10-31T02:52:31;12.20;99.90
15257;DHT22;7731;50.720;6.912;2022-10-31T02:55:12;12.10;99.90
15257;DHT22;7731;50.720;6.912;2022-10-31T02:58:07;12.10;99.90
15257;DHT22;7731;50.720;6.912;2022-10-31T03:00:57;12.10;99.90
15257;DHT22;7731;50.720;6.912;2022-10-31T03:03:57;12.10;99.90
15257;DHT22;7731;50.720;6.912;2022-10-31T03:06:57;12.20;99.90
15257;DHT22;7731;50.720;6.912;2022-10-31T03:09:35;12.20;99.90
15257;DHT22;7731;50.720;6.912;2022-10-31T03:12:15;12.20;99.90
15257;DHT22;7731;50.720;6.912;2022-10-31T03:14:56;12.20;99.90
15257;DHT22;7731;50.720;6.912;2022-10-31T03:17:37;12.20;99.90
15257;DHT22;7731;50.720;6.912;2022-10-31T03:20:22;12.30;99.90
15257;DHT22;7731;50.720;6.912;2022-10-31T03:23:08;12.20;99.90
15257;DHT22;7731;50.720;6.912;2022-10-31T03:25:45;12.30;99.90
15257;DHT22;7731;50.720;6.912;2022-10-31T03:28:22;12.30;99.90
15257;DHT22;7731;50.720;6.912;2022-10-31T03:30:58;12.30;99.90
15257;DHT22;7731;50.720;6.912;2022-10-31T03:33:37;12.30;99.90
15257;DHT22;7731;50.720;6.912;2022-10-31T03:36:10;12.20;99.90
15257;DHT22;7731;50.720;6.912;2022-10-31T03:38:47;12.10;99.90
15257;DHT22;7731;50.720;6.912;2022-10-31T03:41:22;12.10;99.90
15257;DHT22;7731;50.720;6.912;2022-10-31T03:44:00;12.10;99.90
15257;DHT22;7731;50.720;6.912;2022-10-31T03:46:38;12.10;99.90
15257;DHT22;7731;50.720;6.912;2022-10-31T03:49:09;12.10;99.90
15257;DHT22;7731;50.720;6.912;2022-10-31T03:51:46;12.10;99.90
15257;DHT22;7731;50.720;6.912;2022-10-31T03:54:42;12.20;99.90
15257;DHT22;7731;50.720;6.912;2022-10-31T03:57:21;12.10;99.90
15257;DHT22;7731;50.720;6.912;2022-10-31T04:00:03;12.20;99.90
15257;DHT22;7731;50.720;6.912;2022-10-31T04:02:41;12.10;99.90
15257;DHT22;7731;50.720;6.912;2022-10-31T04:05:15;12.10;99.90
15257;DHT22;7731;50.720;6.912;2022-10-31T04:07:51;12.10;99.90
15257;DHT22;7731;50.720;6.912;2022-10-31T04:10:30;12.10;99.90
15257;DHT22;7731;50.720;6.912;2022-10-31T04:13:07;12.00;99.90
15257;DHT22;7731;50.720;6.912;2022-10-31T04:16:03;12.00;99.90
15257;DHT22;7731;50.720;6.912;2022-10-31T04:18:40;11.80;99.90
15257;DHT22;7731;50.720;6.912;2022-10-31T04:21:10;11.80;99.90
15257;DHT22;7731;50.720;6.912;2022-10-31T04:23:41;11.80;99.90
15257;DHT22;7731;50.720;6.912;2022-10-31T04:26:13;11.80;99.90
15257;DHT22;7731;50.720;6.912;2022-10-31T04:28:44;11.90;99.90
15257;DHT22;7731;50.720;6.912;2022-10-31T04:31:17;11.90;99.90
15257;DHT22;7731;50.720;6.912;2022-10-31T04:33:50;11.90;99.90
15257;DHT22;7731;50.720;6.912;2022-10-31T04:36:30;11.90;99.90
15257;DHT22;7731;50.720;6.912;2022-10-31T04:39:01;12.00;99.90
15257;DHT22;7731;50.720;6.912;2022-10-31T04:41:39;12.10;99.90
15257;DHT22;7731;50.720;6.912;2022-10-31T04:44:10;12.10;99.90
15257;DHT22;7731;50.720;6.912;2022-10-31T04:46:43;12.00;99.90
15257;DHT22;7731;50.720;6.912;2022-10-31T04:49:13;11.90;99.90
15257;DHT22;7731;50.720;6.912;2022-10-31T04:51:43;11.90;99.90
15257;DHT22;7731;50.720;6.912;2022-10-31T04:54:13;11.80;99.90
15257;DHT22;7731;50.720;6.912;2022-10-31T04:56:46;11.70;99.90
15257;DHT22;7731;50.720;6.912;2022-10-31T04:59:16;11.70;99.90
15257;DHT22;7731;50.720;6.912;2022-10-31T05:01:47;11.70;99.90
15257;DHT22;7731;50.720;6.912;2022-10-31T05:04:24;11.80;99.90
15257;DHT22;7731;50.720;6.912;2022-10-31T05:06:58;11.70;99.90
15257;DHT22;7731;50.720;6.912;2022-10-31T05:09:28;11.70;99.90
15257;DHT22;7731;50.720;6.912;2022-10-31T05:12:01;11.60;99.90
15257;DHT22;7731;50.720;6.912;2022-10-31T05:14:31;11.50;99.90
15257;DHT22;7731;50.720;6.912;2022-10-31T05:17:04;11.50;99.90
15257;DHT22;7731;50.720;6.912;2022-10-31T05:19:37;11.40;99.90
15257;DHT22;7731;50.720;6.912;2022-10-31T05:22:07;11.40;99.90
15257;DHT22;7731;50.720;6.912;2022-10-31T05:24:37;11.40;99.90
15257;DHT22;7731;50.720;6.912;2022-10-31T05:27:10;11.40;99.90
15257;DHT22;7731;50.720;6.912;2022-10-31T05:29:40;11.50;99.90
15257;DHT22;7731;50.720;6.912;2022-10-31T05:32:11;11.40;99.90
15257;DHT22;7731;50.720;6.912;2022-10-31T05:34:41;11.30;99.90
15257;DHT22;7731;50.720;6.912;2022-10-31T05:37:11;11.30;99.90
15257;DHT22;7731;50.720;6.912;2022-10-31T05:39:42;11.30;99.90
15257;DHT22;7731;50.720;6.912;2022-10-31T05:42:14;11.30;99.90
15257;DHT22;7731;50.720;6.912;2022-10-31T05:44:50;11.30;99.90
15257;DHT22;7731;50.720;6.912;2022-10-31T05:47:20;11.40;99.90
15257;DHT22;7731;50.720;6.912;2022-10-31T05:49:50;11.30;99.90
15257;DHT22;7731;50.720;6.912;2022-10-31T05:52:23;11.30;99.90
15257;DHT22;7731;50.720;6.912;2022-10-31T05:54:53;11.30;99.90
15257;DHT22;7731;50.720;6.912;2022-10-31T05:57:26;11.20;99.90
15257;DHT22;7731;50.720;6.912;2022-10-31T06:00:09;11.10;99.90
15257;DHT22;7731;50.720;6.912;2022-10-31T06:02:43;11.10;99.90
15257;DHT22;7731;50.720;6.912;2022-10-31T06:05:14;11.10;99.90
15257;DHT22;7731;50.720;6.912;2022-10-31T06:07:45;11.10;99.90
15257;DHT22;7731;50.720;6.912;2022-10-31T06:10:15;11.20;99.90
15257;DHT22;7731;50.720;6.912;2022-10-31T06:12:48;11.20;99.90
15257;DHT22;7731;50.720;6.912;2022-10-31T06:15:22;11.20;99.90
15257;DHT22;7731;50.720;6.912;2022-10-31T06:18:04;11.20;99.90
15257;DHT22;7731;50.720;6.912;2022-10-31T06:20:35;11.20;99.90
15257;DHT22;7731;50.720;6.912;2022-10-31T06:23:11;11.10;99.90
15257;DHT22;7731;50.720;6.912;2022-10-31T06:25:41;11.10;99.90
15257;DHT22;7731;50.720;6.912;2022-10-31T06:28:17;11.10;99.90
15257;DHT22;7731;50.720;6.912;2022-10-31T06:30:47;11.10;99.90
15257;DHT22;7731;50.720;6.912;2022-10-31T06:33:23;11.10;99.90
15257;DHT22;7731;50.720;6.912;2022-10-31T06:35:58;11.10;99.90
15257;DHT22;7731;50.720;6.912;2022-10-31T06:38:29;11.20;99.90
15257;DHT22;7731;50.720;6.912;2022-10-31T06:41:02;11.30;99.90
15257;DHT22;7731;50.720;6.912;2022-10-31T06:43:35;11.30;99.90
15257;DHT22;7731;50.720;6.912;2022-10-31T06:46:13;11.30;99.90
15257;DHT22;7731;50.720;6.912;2022-10-31T06:48:49;11.30;99.90
15257;DHT22;7731;50.720;6.912;2022-10-31T06:51:20;11.30;99.90
15257;DHT22;7731;50.720;6.912;2022-10-31T06:53:52;11.40;99.90
15257;DHT22;7731;50.720;6.912;2022-10-31T06:56:23;11.40;99.90
15257;DHT22;7731;50.720;6.912;2022-10-31T06:58:55;11.50;99.90
15257;DHT22;7731;50.720;6.912;2022-10-31T07:01:29;11.50;99.90
15257;DHT22;7731;50.720;6.912;2022-10-31T07:03:59;11.50;99.90
15257;DHT22;7731;50.720;6.912;2022-10-31T07:06:30;11.70;99.90
15257;DHT22;7731;50.720;6.912;2022-10-31T07:09:00;11.80;99.90
15257;DHT22;7731;50.720;6.912;2022-10-31T07:11:30;11.90;99.90
15257;DHT22;7731;50.720;6.912;2022-10-31T07:14:08;12.10;99.90
15257;DHT22;7731;50.720;6.912;2022-10-31T07:16:38;12.20;99.90
15257;DHT22;7731;50.720;6.912;2022-10-31T07:19:11;12.30;99.90
15257;DHT22;7731;50.720;6.912;2022-10-31T07:21:41;12.40;99.90
15257;DHT22;7731;50.720;6.912;2022-10-31T07:24:26;12.40;99.90
15257;DHT22;7731;50.720;6.912;2022-10-31T07:26:57;12.30;99.90
15257;DHT22;7731;50.720;6.912;2022-10-31T07:29:30;12.30;99.90
15257;DHT22;7731;50.720;6.912;2022-10-31T07:32:00;12.40;99.90
15257;DHT22;7731;50.720;6.912;2022-10-31T07:34:30;12.50;99.90
15257;DHT22;7731;50.720;6.912;2022-10-31T07:37:00;12.50;99.90
15257;DHT22;7731;50.720;6.912;2022-10-31T07:39:30;12.50;99.90
15257;DHT22;7731;50.720;6.912;2022-10-31T07:42:01;12.60;99.90
15257;DHT22;7731;50.720;6.912;2022-10-31T07:44:37;12.80;99.90
15257;DHT22;7731;50.720;6.912;2022-10-31T07:47:12;13.00;99.90
15257;DHT22;7731;50.720;6.912;2022-10-31T07:49:42;13.00;99.90
15257;DHT22;7731;50.720;6.912;2022-10-31T07:52:12;13.20;99.90
15257;DHT22;7731;50.720;6.912;2022-10-31T07:54:43;13.40;99.90
15257;DHT22;7731;50.720;6.912;2022-10-31T07:57:13;13.40;99.90
15257;DHT22;7731;50.720;6.912;2022-10-31T07:59:55;13.70;99.90
15257;DHT22;7731;50.720;6.912;2022-10-31T08:02:30;13.70;99.90
15257;DHT22;7731;50.720;6.912;2022-10-31T08:05:04;13.90;99.90
15257;DHT22;7731;50.720;6.912;2022-10-31T08:07:36;14.10;99.90
15257;DHT22;7731;50.720;6.912;2022-10-31T08:10:07;14.20;99.90
15257;DHT22;7731;50.720;6.912;2022-10-31T08:12:37;14.30;99.90
15257;DHT22;7731;50.720;6.912;2022-10-31T08:15:20;14.20;99.90
15257;DHT22;7731;50.720;6.912;2022-10-31T08:17:50;14.00;99.90
15257;DHT22;7731;50.720;6.912;2022-10-31T08:20:21;13.90;99.90
15257;DHT22;7731;50.720;6.912;2022-10-31T08:22:58;13.80;99.90
15257;DHT22;7731;50.720;6.912;2022-10-31T08:25:34;13.70;99.90
15257;DHT22;7731;50.720;6.912;2022-10-31T08:28:14;13.80;99.90
15257;DHT22;7731;50.720;6.912;2022-10-31T08:30:47;14.00;99.90
15257;DHT22;7731;50.720;6.912;2022-10-31T08:33:18;14.10;99.90
15257;DHT22;7731;50.720;6.912;2022-10-31T08:35:48;14.20;99.90
15257;DHT22;7731;50.720;6.912;2022-10-31T08:38:18;14.30;99.90
15257;DHT22;7731;50.720;6.912;2022-10-31T08:40:51;14.50;99.90
15257;DHT22;7731;50.720;6.912;2022-10-31T08:43:21;14.50;99.90
15257;DHT22;7731;50.720;6.912;2022-10-31T08:45:54;14.50;99.90
15257;DHT22;7731;50.720;6.912;2022-10-31T08:48:24;14.70;99.90
15257;DHT22;7731;50.720;6.912;2022-10-31T08:50:56;14.80;99.90
15257;DHT22;7731;50.720;6.912;2022-10-31T08:53:30;14.90;99.90
15257;DHT22;7731;50.720;6.912;2022-10-31T08:56:00;15.00;99.90
15257;DHT22;7731;50.720;6.912;2022-10-31T08:58:30;15.20;99.90
15257;DHT22;7731;50.720;6.912;2022-10-31T09:01:09;15.40;99.90
15257;DHT22;7731;50.720;6.912;2022-10-31T09:03:39;15.50;99.90
15257;DHT22;7731;50.720;6.912;2022-10-31T09:06:09;15.70;99.90
15257;DHT22;7731;50.720;6.912;2022-10-31T09:08:42;15.80;99.90
15257;DHT22;7731;50.720;6.912;2022-10-31T09:11:12;15.90;99.90
15257;DHT22;7731;50.720;6.912;2022-10-31T09:13:42;16.00;99.90
15257;DHT22;7731;50.720;6.912;2022-10-31T09:16:15;16.00;99.90
15257;DHT22;7731;50.720;6.912;2022-10-31T09:18:48;16.30;99.90
15257;DHT22;7731;50.720;6.912;2022-10-31T09:21:18;17.00;99.90
15257;DHT22;7731;50.720;6.912;2022-10-31T09:23:48;17.60;99.90
15257;DHT22;7731;50.720;6.912;2022-10-31T09:26:26;18.20;99.90
15257;DHT22;7731;50.720;6.912;2022-10-31T09:28:57;19.00;99.90
15257;DHT22;7731;50.720;6.912;2022-10-31T09:31:31;19.80;95.60
15257;DHT22;7731;50.720;6.912;2022-10-31T09:34:10;20.00;97.80
15257;DHT22;7731;50.720;6.912;2022-10-31T09:36:49;21.20;32.40
15257;DHT22;7731;50.720;6.912;2022-10-31T09:39:19;21.90;29.60
15257;DHT22;7731;50.720;6.912;2022-10-31T09:42:22;23.50;1.00
15257;DHT22;7731;50.720;6.912;2022-10-31T09:45:13;24.40;1.00
15257;DHT22;7731;50.720;6.912;2022-10-31T09:48:11;24.80;1.00
15257;DHT22;7731;50.720;6.912;2022-10-31T09:50:55;24.80;99.90
15257;DHT22;7731;50.720;6.912;2022-10-31T09:53:37;24.40;1.00
15257;DHT22;7731;50.720;6.912;2022-10-31T09:56:13;25.40;99.90
15257;DHT22;7731;50.720;6.912;2022-10-31T09:58:49;26.00;1.00
15257;DHT22;7731;50.720;6.912;2022-10-31T10:01:40;25.90;1.00
15257;DHT22;7731;50.720;6.912;2022-10-31T10:04:33;25.90;1.00
15257;DHT22;7731;50.720;6.912;2022-10-31T10:07:15;25.70;99.90
15257;DHT22;7731;50.720;6.912;2022-10-31T10:09:54;25.40;1.00
15257;DHT22;7731;50.720;6.912;2022-10-31T10:12:38;24.70;99.90
15257;DHT22;7731;50.720;6.912;2022-10-31T10:15:37;25.10;99.90
15257;DHT22;7731;50.720;6.912;2022-10-31T10:18:27;23.60;1.00
15257;DHT22;7731;50.720;6.912;2022-10-31T10:21:24;22.00;1.00
15257;DHT22;7731;50.720;6.912;2022-10-31T10:24:42;20.80;12.60
15257;DHT22;7731;50.720;6.912;2022-10-31T10:27:34;20.60;33.40
15257;DHT22;7731;50.720;6.912;2022-10-31T10:30:17;21.00;18.50
15257;DHT22;7731;50.720;6.912;2022-10-31T10:32:51;20.90;24.00
15257;DHT22;7731;50.720;6.912;2022-10-31T10:35:27;20.70;34.40
15257;DHT22;7731;50.720;6.912;2022-10-31T10:38:13;20.40;51.00
15257;DHT22;7731;50.720;6.912;2022-10-31T10:40:50;20.00;62.40
15257;DHT22;7731;50.720;6.912;2022-10-31T10:43:26;19.80;80.20
15257;DHT22;7731;50.720;6.912;2022-10-31T10:46:18;19.40;98.30
15257;DHT22;7731;50.720;6.912;2022-10-31T10:49:15;18.90;99.90
15257;DHT22;7731;50.720;6.912;2022-10-31T10:51:55;18.50;99.90
15257;DHT22;7731;50.720;6.912;2022-10-31T10:55:09;18.30;99.90
15257;DHT22;7731;50.720;6.912;2022-10-31T10:57:56;18.20;99.90
15257;DHT22;7731;50.720;6.912;2022-10-31T11:00:32;18.40;99.90
15257;DHT22;7731;50.720;6.912;2022-10-31T11:03:09;18.40;99.90
15257;DHT22;7731;50.720;6.912;2022-10-31T11:05:42;18.40;99.90
15257;DHT22;7731;50.720;6.912;2022-10-31T11:08:24;18.50;99.90
15257;DHT22;7731;50.720;6.912;2022-10-31T11:11:02;18.50;99.90
15257;DHT22;7731;50.720;6.912;2022-10-31T11:13:36;18.50;99.90
15257;DHT22;7731;50.720;6.912;2022-10-31T11:16:09;18.70;97.70
15257;DHT22;7731;50.720;6.912;2022-10-31T11:18:47;19.00;88.20
15257;DHT22;7731;50.720;6.912;2022-10-31T11:21:23;19.20;44.90
15257;DHT22;7731;50.720;6.912;2022-10-31T11:24:02;19.40;31.30
15257;DHT22;7731;50.720;6.912;2022-10-31T11:26:36;19.60;27.10
15257;DHT22;7731;50.720;6.912;2022-10-31T11:29:14;19.80;8.50
15257;DHT22;7731;50.720;6.912;2022-10-31T11:31:46;20.00;1.00
15257;DHT22;7731;50.720;6.912;2022-10-31T11:34:28;20.20;1.00
15257;DHT22;7731;50.720;6.912;2022-10-31T11:37:04;20.00;1.00
15257;DHT22;7731;50.720;6.912;2022-10-31T11:39:45;19.70;1.00
15257;DHT22;7731;50.720;6.912;2022-10-31T11:42:27;19.60;14.20
15257;DHT22;7731;50.720;6.912;2022-10-31T11:45:06;19.40;21.10
15257;DHT22;7731;50.720;6.912;2022-10-31T11:47:48;19.30;22.80
15257;DHT22;7731;50.720;6.912;2022-10-31T11:50:30;19.20;36.50
15257;DHT22;7731;50.720;6.912;2022-10-31T11:53:14;18.90;59.30
15257;DHT22;7731;50.720;6.912;2022-10-31T11:55:46;18.70;73.60
15257;DHT22;7731;50.720;6.912;2022-10-31T11:58:33;18.60;84.20
15257;DHT22;7731;50.720;6.912;2022-10-31T12:01:04;18.60;84.50
15257;DHT22;7731;50.720;6.912;2022-10-31T12:03:44;18.60;85.10
15257;DHT22;7731;50.720;6.912;2022-10-31T12:06:29;18.60;93.70
15257;DHT22;7731;50.720;6.912;2022-10-31T12:09:14;18.80;90.50
15257;DHT22;7731;50.720;6.912;2022-10-31T12:15:11;18.90;58.10
15257;DHT22;7731;50.720;6.912;2022-10-31T12:18:25;18.70;82.80
15257;DHT22;7731;50.720;6.912;2022-10-31T12:21:18;18.90;56.90
15257;DHT22;7731;50.720;6.912;2022-10-31T12:24:01;18.70;78.50
15257;DHT22;7731;50.720;6.912;2022-10-31T12:26:53;18.80;71.40
15257;DHT22;7731;50.720;6.912;2022-10-31T12:29:41;18.80;72.70
15257;DHT22;7731;50.720;6.912;2022-10-31T12:32:32;18.70;90.30
15257;DHT22;7731;50.720;6.912;2022-10-31T12:35:22;18.80;78.80
15257;DHT22;7731;50.720;6.912;2022-10-31T12:38:48;18.70;79.90
15257;DHT22;7731;50.720;6.912;2022-10-31T12:41:39;18.70;81.10
15257;DHT22;7731;50.720;6.912;2022-10-31T12:44:36;18.70;84.30
15257;DHT22;7731;50.720;6.912;2022-10-31T12:50:40;18.50;99.90
15257;DHT22;7731;50.720;6.912;2022-10-31T12:53:41;18.40;99.90
15257;DHT22;7731;50.720;6.912;2022-10-31T12:56:33;18.30;99.90
15257;DHT22;7731;50.720;6.912;2022-10-31T12:59:24;18.20;99.90
15257;DHT22;7731;50.720;6.912;2022-10-31T13:02:03;18.20;99.90
15257;DHT22;7731;50.720;6.912;2022-10-31T13:04:49;18.10;99.90
15257;DHT22;7731;50.720;6.912;2022-10-31T13:07:28;18.20;99.90
15257;DHT22;7731;50.720;6.912;2022-10-31T13:10:07;18.20;99.90
15257;DHT22;7731;50.720;6.912;2022-10-31T13:12:47;18.20;99.90
15257;DHT22;7731;50.720;6.912;2022-10-31T13:15:26;18.30;99.90
15257;DHT22;7731;50.720;6.912;2022-10-31T13:18:04;18.30;99.90
15257;DHT22;7731;50.720;6.912;2022-10-31T13:20:48;18.30;99.90
15257;DHT22;7731;50.720;6.912;2022-10-31T13:23:27;18.50;86.70
15257;DHT22;7731;50.720;6.912;2022-10-31T13:26:26;18.60;73.70
15257;DHT22;7731;50.720;6.912;2022-10-31T13:29:16;18.30;90.70
15257;DHT22;7731;50.720;6.912;2022-10-31T13:32:03;18.30;82.10
15257;DHT22;7731;50.720;6.912;2022-10-31T13:34:36;18.30;87.90
15257;DHT22;7731;50.720;6.912;2022-10-31T13:37:27;18.20;93.90
15257;DHT22;7731;50.720;6.912;2022-10-31T13:40:14;18.20;93.80
15257;DHT22;7731;50.720;6.912;2022-10-31T13:43:02;18.10;99.90
15257;DHT22;7731;50.720;6.912;2022-10-31T13:45:48;18.10;99.90
15257;DHT22;7731;50.720;6.912;2022-10-31T13:48:37;18.00;99.90
15257;DHT22;7731;50.720;6.912;2022-10-31T13:51:10;17.90;99.90
15257;DHT22;7731;50.720;6.912;2022-10-31T13:53:55;17.80;99.90
15257;DHT22;7731;50.720;6.912;2022-10-31T13:56:36;17.80;99.90
15257;DHT22;7731;50.720;6.912;2022-10-31T13:59:21;17.80;99.90
15257;DHT22;7731;50.720;6.912;2022-10-31T14:01:55;17.80;99.90
15257;DHT22;7731;50.720;6.912;2022-10-31T14:04:33;17.90;99.90
15257;DHT22;7731;50.720;6.912;2022-10-31T14:07:09;17.90;99.90
15257;DHT22;7731;50.720;6.912;2022-10-31T14:09:55;17.90;99.90
15257;DHT22;7731;50.720;6.912;2022-10-31T14:12:38;17.80;99.90
15257;DHT22;7731;50.720;6.912;2022-10-31T14:15:15;17.80;99.90
15257;DHT22;7731;50.720;6.912;2022-10-31T14:17:55;17.80;99.90
15257;DHT22;7731;50.720;6.912;2022-10-31T14:20:37;17.80;99.90
15257;DHT22;7731;50.720;6.912;2022-10-31T14:23:37;17.90;99.90
15257;DHT22;7731;50.720;6.912;2022-10-31T14:26:37;18.00;99.90
15257;DHT22;7731;50.720;6.912;2022-10-31T14:29:25;17.90;99.90
15257;DHT22;7731;50.720;6.912;2022-10-31T14:32:02;17.90;99.90
15257;DHT22;7731;50.720;6.912;2022-10-31T14:34:41;17.90;99.90
15257;DHT22;7731;50.720;6.912;2022-10-31T14:40:22;18.00;99.90
15257;DHT22;7731;50.720;6.912;2022-10-31T14:46:13;18.00;99.90
15257;DHT22;7731;50.720;6.912;2022-10-31T14:51:50;18.00;99.90
15257;DHT22;7731;50.720;6.912;2022-10-31T14:54:27;17.90;99.90
15257;DHT22;7731;50.720;6.912;2022-10-31T14:57:05;17.90;99.90
15257;DHT22;7731;50.720;6.912;2022-10-31T14:59:48;17.90;98.70
15257;DHT22;7731;50.720;6.912;2022-10-31T15:02:34;17.90;99.90
15257;DHT22;7731;50.720;6.912;2022-10-31T15:05:12;17.80;99.90
15257;DHT22;7731;50.720;6.912;2022-10-31T15:07:50;17.80;99.90
15257;DHT22;7731;50.720;6.912;2022-10-31T15:10:26;17.80;99.90
15257;DHT22;7731;50.720;6.912;2022-10-31T15:13:09;17.80;99.90
15257;DHT22;7731;50.720;6.912;2022-10-31T15:15:42;17.80;99.90
15257;DHT22;7731;50.720;6.912;2022-10-31T15:18:23;17.70;99.90
15257;DHT22;7731;50.720;6.912;2022-10-31T15:20:55;17.70;99.90
15257;DHT22;7731;50.720;6.912;2022-10-31T15:23:29;17.60;99.90
15257;DHT22;7731;50.720;6.912;2022-10-31T15:26:01;17.70;99.90
15257;DHT22;7731;50.720;6.912;2022-10-31T15:28:33;17.60;99.90
15257;DHT22;7731;50.720;6.912;2022-10-31T15:31:16;17.70;99.90
15257;DHT22;7731;50.720;6.912;2022-10-31T15:33:48;17.60;99.90
15257;DHT22;7731;50.720;6.912;2022-10-31T15:36:21;17.60;99.90
15257;DHT22;7731;50.720;6.912;2022-10-31T15:38:57;17.60;99.90
15257;DHT22;7731;50.720;6.912;2022-10-31T15:41:34;17.50;99.90
15257;DHT22;7731;50.720;6.912;2022-10-31T15:44:24;17.50;99.90
15257;DHT22;7731;50.720;6.912;2022-10-31T15:47:02;17.50;99.90
15257;DHT22;7731;50.720;6.912;2022-10-31T15:49:41;17.50;99.90
15257;DHT22;7731;50.720;6.912;2022-10-31T15:52:25;17.40;99.90
15257;DHT22;7731;50.720;6.912;2022-10-31T15:55:18;17.30;99.90
15257;DHT22;7731;50.720;6.912;2022-10-31T15:57:52;17.30;99.90
15257;DHT22;7731;50.720;6.912;2022-10-31T16:00:27;17.10;99.90
15257;DHT22;7731;50.720;6.912;2022-10-31T16:03:09;17.10;99.90
15257;DHT22;7731;50.720;6.912;2022-10-31T16:05:55;17.10;99.90
15257;DHT22;7731;50.720;6.912;2022-10-31T16:08:34;17.00;99.90
15257;DHT22;7731;50.720;6.912;2022-10-31T16:11:18;17.00;99.90
15257;DHT22;7731;50.720;6.912;2022-10-31T16:14:04;17.00;99.90
15257;DHT22;7731;50.720;6.912;2022-10-31T16:16:42;16.90;99.90
15257;DHT22;7731;50.720;6.912;2022-10-31T16:19:22;16.90;99.90
15257;DHT22;7731;50.720;6.912;2022-10-31T16:21:55;16.80;99.90
15257;DHT22;7731;50.720;6.912;2022-10-31T16:24:37;16.80;99.90
15257;DHT22;7731;50.720;6.912;2022-10-31T16:27:19;16.90;99.90
15257;DHT22;7731;50.720;6.912;2022-10-31T16:29:56;16.90;99.90
15257;DHT22;7731;50.720;6.912;2022-10-31T16:32:33;16.90;99.90
15257;DHT22;7731;50.720;6.912;2022-10-31T16:35:27;16.90;99.90
15257;DHT22;7731;50.720;6.912;2022-10-31T16:38:05;16.90;99.90
15257;DHT22;7731;50.720;6.912;2022-10-31T16:40:38;16.90;99.90
15257;DHT22;7731;50.720;6.912;2022-10-31T16:43:11;17.00;99.90
15257;DHT22;7731;50.720;6.912;2022-10-31T16:45:44;16.90;99.90
15257;DHT22;7731;50.720;6.912;2022-10-31T16:48:16;16.90;99.90
15257;DHT22;7731;50.720;6.912;2022-10-31T16:50:53;16.90;99.90
15257;DHT22;7731;50.720;6.912;2022-10-31T16:53:23;16.70;99.90
15257;DHT22;7731;50.720;6.912;2022-10-31T16:55:55;16.60;99.90
15257;DHT22;7731;50.720;6.912;2022-10-31T16:58:28;16.60;99.90
15257;DHT22;7731;50.720;6.912;2022-10-31T17:01:04;16.50;99.90
15257;DHT22;7731;50.720;6.912;2022-10-31T17:03:36;16.50;99.90
15257;DHT22;7731;50.720;6.912;2022-10-31T17:06:12;16.40;99.90
15257;DHT22;7731;50.720;6.912;2022-10-31T17:08:45;16.40;99.90
15257;DHT22;7731;50.720;6.912;2022-10-31T17:11:21;16.40;99.90
15257;DHT22;7731;50.720;6.912;2022-10-31T17:13:54;16.40;99.90